This is the latest recevied weather packets stored in our database for station/object WA6GRA. If no packets are shown the sender has not sent any weather packets the latest 1 day(s).
| Time | Temp. | Humidity | Pressure | Rain* | Wind** | Luminosity | Snow |
|---|---|---|---|---|---|---|---|
| 1778118349 | 25° C | 48% | 1016 hPa | 0 mm | - | 78 W/m² | - |
| 1778117142 | 25° C | 48% | 1016.3 hPa | 0 mm | - | 116 W/m² | - |
| 1778115938 | 25.56° C | 47% | 1015.8 hPa | 0 mm | - | 162 W/m² | - |
| 1778115332 | 25.56° C | 46% | 1016.2 hPa | 0 mm | - | 188 W/m² | - |
| 1778114130 | 25.56° C | 46% | 1016.2 hPa | 0 mm | - | 246 W/m² | - |
| 1778113528 | 25.56° C | 45% | 1016.1 hPa | 0 mm | - | 275 W/m² | - |
| 1778112927 | 25.56° C | 46% | 1016.1 hPa | 0 mm | - | 309 W/m² | - |
| 1778112326 | 25° C | 46% | 1015.9 hPa | 0 mm | - | 338 W/m² | - |
| 1778110524 | 25° C | 48% | 1016 hPa | 0 mm | - | 437 W/m² | - |
| 1778109322 | 24.44° C | 46% | 1016.3 hPa | 0 mm | - | 500 W/m² | - |
| 1778108722 | 25° C | 47% | 1016.5 hPa | 0 mm | - | 535 W/m² | - |
| 1778105109 | 23.89° C | 49% | 1017.4 hPa | 0 mm | - | 712 W/m² | - |
| 1778103906 | 23.89° C | 50% | 1017.6 hPa | 0 mm | - | 762 W/m² | - |
| 1778103301 | 24.44° C | 47% | 1017.5 hPa | 0 mm | - | 778 W/m² | - |
| 1778102097 | 23.89° C | 48% | 1017.7 hPa | 0 mm | - | 823 W/m² | - |
| 1778099696 | 22.78° C | 49% | 1018 hPa | 0 mm | - | 875 W/m² | - |
| 1778099096 | 22.78° C | 49% | 1018.4 hPa | 0 mm | - | 887 W/m² | - |
| 1778096094 | 22.22° C | 52% | 1018.9 hPa | 0 mm | - | 914 W/m² | - |
| 1778091890 | 21.11° C | 57% | 1019.5 hPa | 0 mm | - | 850 W/m² | - |
| 1778091285 | 21.11° C | 60% | 1019.7 hPa | 0 mm | - | 815 W/m² | - |
| 1778090684 | 20° C | 61% | 1019.6 hPa | 0 mm | - | 806 W/m² | - |
| 1778089484 | 20° C | 60% | 1019.6 hPa | 0 mm | - | 743 W/m² | - |
| 1778088884 | 19.44° C | 62% | 1019.7 hPa | 0 mm | - | 725 W/m² | - |
| 1778088284 | 19.44° C | 65% | 1019.5 hPa | 0 mm | - | 692 W/m² | - |
| 1778087083 | 18.89° C | 65% | 1019.8 hPa | 0 mm | - | 648 W/m² | - |
* Rain latest hour (hover to see other rain measurements)
** Current wind speed in m/s (hover to see current wind gust speed)